Aviation Digital Data Service (ADDS)

Output produced by METARs form (1355 UTC 19 February 2020)
found at http://aviationweather.gov/metar/data/
 
METAR text: KARR 191352Z 33007KT 10SM CLR M08/M15 A3061 RMK AO2 SLP376 T10831150
Conditions at: KARR (CHICAGO/AURORA , IL, US) observed 1352 UTC 19 February 2020
Temperature: -8.3°C (17°F)
Dewpoint: -15.0°C ( 5°F) [RH = 58%]
Pressure (altimeter): 30.61 inches Hg (1036.7 mb)
[Sea-level pressure: 1037.6 mb]
Winds: from the NNW (330 degrees) at 8 MPH (7 knots; 3.6 m/s)
Visibility: 10 or more miles (16+ km)
Ceiling: at least 12,000 feet AGL
Clouds: sky clear below 12,000 feet AGL
Weather: no significant weather observed at this time